createdAt,value
2017-06-24T00:00:37.064Z,25.13
2017-06-24T00:03:04.652Z,26.70
2017-06-24T00:05:32.694Z,41.50
2017-06-24T00:08:00.306Z,30.50
2017-06-24T00:10:28.690Z,40.97
2017-06-24T00:12:56.804Z,36.83
2017-06-24T00:15:24.374Z,30.50
2017-06-24T00:17:52.700Z,24.20
2017-06-24T00:20:20.585Z,35.17
2017-06-24T00:22:48.161Z,31.27
2017-06-24T00:25:15.768Z,36.80
2017-06-24T00:27:43.580Z,29.13
2017-06-24T00:30:11.313Z,39.03
2017-06-24T00:32:38.901Z,33.83
2017-06-24T00:35:07.007Z,47.83
2017-06-24T00:37:34.702Z,35.80
2017-06-24T00:40:02.391Z,49.03
2017-06-24T00:42:31.018Z,41.00
2017-06-24T00:44:59.529Z,37.13
2017-06-24T00:47:27.856Z,56.63
2017-06-24T00:49:55.814Z,41.73
2017-06-24T00:52:23.374Z,36.83
2017-06-24T00:54:51.957Z,40.60
2017-06-24T00:57:20.525Z,46.03
2017-06-24T00:59:48.870Z,50.47
2017-06-24T01:02:16.455Z,58.17
2017-06-24T01:04:44.446Z,55.93
2017-06-24T01:07:12.027Z,41.37
2017-06-24T01:09:39.597Z,39.33
2017-06-24T01:12:07.538Z,38.17
2017-06-24T01:14:35.195Z,48.53
2017-06-24T01:17:02.890Z,30.47
2017-06-24T01:19:30.980Z,47.27
2017-06-24T01:21:58.574Z,41.10
2017-06-24T01:24:26.129Z,32.83
2017-06-24T01:26:54.027Z,37.90
2017-06-24T01:29:21.616Z,38.97
2017-06-24T01:31:49.707Z,41.53
2017-06-24T01:34:18.623Z,36.27
2017-06-24T01:36:46.259Z,34.13
2017-06-24T01:39:13.848Z,41.93
2017-06-24T01:41:42.348Z,32.60
2017-06-24T01:44:11.742Z,50.37
2017-06-24T01:46:41.127Z,46.93
2017-06-24T01:49:09.710Z,43.03
2017-06-24T01:51:37.385Z,46.07
2017-06-24T01:54:05.099Z,46.70
2017-06-24T01:56:33.327Z,47.53
2017-06-24T01:59:00.979Z,52.93
2017-06-24T02:01:28.883Z,52.07
2017-06-24T02:03:56.496Z,57.33
2017-06-24T02:06:24.937Z,51.70
2017-06-24T02:08:52.537Z,54.73
2017-06-24T02:11:20.411Z,58.03
2017-06-24T02:13:47.993Z,53.73
2017-06-24T02:16:15.622Z,61.63
2017-06-24T02:18:43.491Z,51.87
2017-06-24T02:21:11.865Z,46.17
2017-06-24T02:23:40.188Z,48.93
2017-06-24T02:26:08.489Z,49.30
2017-06-24T02:28:36.888Z,44.13
2017-06-24T02:31:04.484Z,43.47
2017-06-24T02:33:34.054Z,44.40
2017-06-24T02:36:01.804Z,47.37
2017-06-24T02:38:29.445Z,39.10
2017-06-24T02:40:57.366Z,41.77
2017-06-24T02:43:24.949Z,40.77
2017-06-24T02:45:52.524Z,48.83
2017-06-24T02:48:20.583Z,47.93
2017-06-24T02:50:48.966Z,43.13
2017-06-24T02:53:16.572Z,40.10
2017-06-24T02:55:45.258Z,50.47
2017-06-24T02:58:13.620Z,49.00
2017-06-24T03:00:41.329Z,36.50
2017-06-24T03:03:09.564Z,32.37
2017-06-24T03:05:37.239Z,38.30
2017-06-24T03:08:04.980Z,48.07
2017-06-24T03:10:33.453Z,43.00
2017-06-24T03:13:01.257Z,31.23
2017-06-24T03:15:28.884Z,36.03
2017-06-24T03:17:57.509Z,37.87
2017-06-24T03:20:25.070Z,40.30
2017-06-24T03:22:52.649Z,39.80
2017-06-24T03:25:21.010Z,31.60
2017-06-24T03:27:49.352Z,30.43
2017-06-24T03:30:16.920Z,38.47
2017-06-24T03:32:45.677Z,26.10
2017-06-24T03:35:13.722Z,31.43
2017-06-24T03:37:41.313Z,28.83
2017-06-24T03:40:09.752Z,24.57
2017-06-24T03:42:40.017Z,29.90
2017-06-24T03:45:07.589Z,24.03
2017-06-24T03:47:35.409Z,27.37
2017-06-24T03:50:03.036Z,36.30
2017-06-24T03:52:30.633Z,26.50
2017-06-24T03:54:59.077Z,24.00
2017-06-24T03:57:26.647Z,24.90
2017-06-24T03:59:54.225Z,30.17
2017-06-24T04:02:22.575Z,24.80
2017-06-24T04:04:50.910Z,25.63
2017-06-24T04:07:18.492Z,37.70
2017-06-24T04:09:47.353Z,38.60
2017-06-24T04:12:15.679Z,32.13
2017-06-24T04:14:43.248Z,40.13
2017-06-24T04:17:12.189Z,34.00
2017-06-24T04:19:39.750Z,46.37
2017-06-24T04:22:07.349Z,44.60
2017-06-24T04:24:35.019Z,37.90
2017-06-24T04:27:02.708Z,33.13
2017-06-24T04:29:32.082Z,51.20
2017-06-24T04:32:00.313Z,38.03
2017-06-24T04:34:27.895Z,52.50
2017-06-24T04:36:56.236Z,50.90
2017-06-24T04:39:23.927Z,36.77
2017-06-24T04:41:52.302Z,39.03
2017-06-24T04:44:19.875Z,41.43
2017-06-24T04:46:47.985Z,37.73
2017-06-24T04:49:16.319Z,34.60
2017-06-24T04:51:43.877Z,34.73
2017-06-24T04:54:11.539Z,34.57
2017-06-24T04:56:39.857Z,37.73
2017-06-24T04:59:07.429Z,36.90
2017-06-24T05:01:37.190Z,31.13
2017-06-24T05:04:04.838Z,29.70
2017-06-24T05:06:32.446Z,39.40
2017-06-24T05:09:01.153Z,33.80
2017-06-24T05:11:28.732Z,37.37
2017-06-24T05:13:57.080Z,28.33
2017-06-24T05:16:25.690Z,37.17
2017-06-24T05:18:53.768Z,27.47
2017-06-24T05:21:21.359Z,36.80
2017-06-24T05:23:49.271Z,35.23
2017-06-24T05:26:16.868Z,40.87
2017-06-24T05:28:45.208Z,29.53
2017-06-24T05:31:13.168Z,32.33
2017-06-24T05:33:41.546Z,25.50
2017-06-24T05:36:09.116Z,32.20
2017-06-24T05:38:38.466Z,25.20
2017-06-24T05:41:06.237Z,23.90
2017-06-24T05:43:34.867Z,25.40
2017-06-24T05:46:03.520Z,21.37
2017-06-24T05:48:31.113Z,16.97
2017-06-24T05:50:59.531Z,21.80
2017-06-24T05:53:27.832Z,12.37
2017-06-24T05:55:55.427Z,26.87
2017-06-24T05:58:23.035Z,19.67
2017-06-24T06:00:51.612Z,19.23
2017-06-24T06:03:19.954Z,13.63
2017-06-24T06:05:47.560Z,12.90
2017-06-24T06:08:15.453Z,11.70
2017-06-24T06:10:43.024Z,15.73
2017-06-24T06:13:10.613Z,16.73
2017-06-24T06:15:38.514Z,11.90
2017-06-24T06:18:06.914Z,11.23
2017-06-24T06:20:34.762Z,11.40
2017-06-24T06:23:02.609Z,13.00
2017-06-24T06:25:30.405Z,16.23
2017-06-24T06:27:57.988Z,13.83
2017-06-24T06:30:26.746Z,15.40
2017-06-24T06:32:55.069Z,20.60
2017-06-24T06:35:22.657Z,20.80
2017-06-24T06:37:50.355Z,28.47
2017-06-24T06:40:18.742Z,21.43
2017-06-24T06:42:46.373Z,29.10
2017-06-24T06:45:14.291Z,21.97
2017-06-24T06:47:41.890Z,38.03
2017-06-24T06:50:09.757Z,28.53
2017-06-24T06:52:38.579Z,34.60
2017-06-24T06:55:06.277Z,36.83
2017-06-24T06:57:34.746Z,43.10
2017-06-24T07:00:02.487Z,29.80
2017-06-24T07:02:30.182Z,52.97
2017-06-24T07:04:57.795Z,28.10
2017-06-24T07:07:27.119Z,32.13
2017-06-24T07:09:54.704Z,29.60
2017-06-24T07:12:22.260Z,32.33
2017-06-24T07:14:51.614Z,28.10
2017-06-24T07:17:19.235Z,29.97
2017-06-24T07:19:46.801Z,24.83
2017-06-24T07:22:14.741Z,25.83
2017-06-24T07:24:42.336Z,21.33
2017-06-24T07:27:10.840Z,25.10
2017-06-24T07:29:38.659Z,26.40
2017-06-24T07:32:06.426Z,22.03
2017-06-24T07:34:34.206Z,25.53
2017-06-24T07:37:02.386Z,26.10
2017-06-24T07:39:30.311Z,43.57
2017-06-24T07:41:58.012Z,29.30
2017-06-24T07:44:26.886Z,26.93
2017-06-24T07:46:55.226Z,36.30
2017-06-24T07:49:22.837Z,26.73
2017-06-24T07:51:50.893Z,22.10
2017-06-24T07:54:18.463Z,24.47
2017-06-24T07:56:46.026Z,21.53
2017-06-24T07:59:13.731Z,35.80
2017-06-24T08:01:41.603Z,40.47
2017-06-24T08:04:09.359Z,31.90
2017-06-24T08:06:39.106Z,35.90
2017-06-24T08:09:06.794Z,20.40
2017-06-24T08:11:34.834Z,22.23
2017-06-24T08:14:03.650Z,26.40
2017-06-24T08:16:32.310Z,22.20
2017-06-24T08:18:59.973Z,29.23
2017-06-24T08:21:28.545Z,26.67
2017-06-24T08:23:56.916Z,25.40
2017-06-24T08:26:25.244Z,22.50
2017-06-24T08:28:54.631Z,26.00
2017-06-24T08:31:22.276Z,22.97
2017-06-24T08:33:49.832Z,21.47
2017-06-24T08:36:18.515Z,27.40
2017-06-24T08:38:46.072Z,25.50
2017-06-24T08:41:14.452Z,30.17
2017-06-24T08:43:43.710Z,20.27
2017-06-24T08:46:11.320Z,31.20
2017-06-24T08:48:38.952Z,23.80
2017-06-24T08:51:06.824Z,20.93
2017-06-24T08:53:34.670Z,26.40
2017-06-24T08:56:02.604Z,21.43
2017-06-24T08:58:30.474Z,22.17
2017-06-24T09:00:58.105Z,19.60
2017-06-24T09:03:25.713Z,19.37
2017-06-24T09:05:53.308Z,29.93
2017-06-24T09:08:20.895Z,19.30
2017-06-24T09:10:49.245Z,23.87
2017-06-24T09:13:18.748Z,26.43
2017-06-24T09:15:47.144Z,18.07
2017-06-24T09:18:14.741Z,25.40
2017-06-24T09:20:42.813Z,16.63
2017-06-24T09:23:11.157Z,24.50
2017-06-24T09:25:38.990Z,14.83
2017-06-24T09:28:06.953Z,16.37
2017-06-24T09:30:35.815Z,11.63
2017-06-24T09:33:03.647Z,11.63
2017-06-24T09:35:31.707Z,14.07
2017-06-24T09:37:59.346Z,21.23
2017-06-24T09:40:26.936Z,12.87
2017-06-24T09:42:55.074Z,21.33
2017-06-24T09:45:22.714Z,24.37
2017-06-24T09:47:50.304Z,26.10
2017-06-24T09:50:18.419Z,19.13
2017-06-24T09:52:46.092Z,23.73
2017-06-24T09:55:14.534Z,24.43
2017-06-24T09:57:42.496Z,19.13
2017-06-24T10:00:10.101Z,20.63
2017-06-24T10:02:37.886Z,17.87
2017-06-24T10:05:06.280Z,19.57
2017-06-24T10:07:34.355Z,21.53
2017-06-24T10:10:02.430Z,18.37
2017-06-24T10:12:31.337Z,14.50
2017-06-24T10:14:58.998Z,42.23
2017-06-24T10:17:26.737Z,16.90
2017-06-24T10:19:54.594Z,24.57
2017-06-24T10:22:22.283Z,28.13
2017-06-24T10:24:49.904Z,28.53
2017-06-24T10:27:18.024Z,14.03
2017-06-24T10:29:46.741Z,18.80
2017-06-24T10:32:15.331Z,18.87
2017-06-24T10:34:43.413Z,28.80
2017-06-24T10:37:11.070Z,23.87
2017-06-24T10:39:38.867Z,26.17
2017-06-24T10:42:07.052Z,21.50
2017-06-24T10:44:34.683Z,17.10
2017-06-24T10:47:02.344Z,26.63
2017-06-24T10:49:30.695Z,25.53
2017-06-24T10:51:58.301Z,22.53
2017-06-24T10:54:25.893Z,22.00
2017-06-24T10:56:53.594Z,19.43
2017-06-24T10:59:21.204Z,23.43
2017-06-24T11:01:48.867Z,16.33
2017-06-24T11:04:16.636Z,25.47
2017-06-24T11:06:44.243Z,28.23
2017-06-24T11:09:47.954Z,22.10
2017-06-24T11:12:15.601Z,21.30
2017-06-24T11:14:43.168Z,21.17
2017-06-24T11:17:11.677Z,22.07
2017-06-24T11:19:39.418Z,17.80
2017-06-24T11:22:07.541Z,25.43
2017-06-24T11:24:35.777Z,30.20
2017-06-24T11:27:03.740Z,17.77
2017-06-24T11:29:31.699Z,17.93
2017-06-24T11:31:59.925Z,22.03
2017-06-24T11:34:27.504Z,19.60
2017-06-24T11:36:55.074Z,14.83
2017-06-24T11:39:23.497Z,20.53
2017-06-24T11:41:51.083Z,28.60
2017-06-24T11:44:18.644Z,17.93
2017-06-24T11:46:46.567Z,19.30
2017-06-24T11:49:14.259Z,15.80
2017-06-24T11:51:41.863Z,22.33
2017-06-24T11:54:10.622Z,19.93
2017-06-24T11:56:38.998Z,16.60
2017-06-24T11:59:07.378Z,16.30
2017-06-24T12:01:35.379Z,18.97
2017-06-24T12:04:03.801Z,24.10
2017-06-24T12:06:31.596Z,22.63
2017-06-24T12:09:00.766Z,24.50
2017-06-24T12:11:29.192Z,17.70
2017-06-24T12:13:56.804Z,15.43
2017-06-24T12:16:25.411Z,25.27
2017-06-24T12:18:53.758Z,15.77
2017-06-24T12:21:23.118Z,24.00
2017-06-24T12:23:51.645Z,20.40
2017-06-24T12:26:19.226Z,14.37
2017-06-24T12:28:46.816Z,24.00
2017-06-24T12:31:14.810Z,14.43
2017-06-24T12:33:43.427Z,19.80
2017-06-24T12:36:11.754Z,11.80
2017-06-24T12:38:39.796Z,20.00
2017-06-24T12:41:07.407Z,20.70
2017-06-24T12:43:35.078Z,18.07
2017-06-24T12:46:04.038Z,22.40
2017-06-24T12:48:31.696Z,7.93
2017-06-24T12:50:59.492Z,17.13
2017-06-24T12:53:27.472Z,17.33
2017-06-24T12:55:55.042Z,18.33
2017-06-24T12:58:22.688Z,11.23
2017-06-24T13:00:50.732Z,17.90
2017-06-24T13:03:18.290Z,12.23
2017-06-24T13:05:46.821Z,23.73
2017-06-24T13:08:14.796Z,20.60
2017-06-24T13:10:42.401Z,17.10
2017-06-24T13:13:10.010Z,19.07
2017-06-24T13:15:37.774Z,15.93
2017-06-24T13:18:05.481Z,17.70
2017-06-24T13:20:33.282Z,20.23
2017-06-24T13:23:01.461Z,22.23
2017-06-24T13:25:29.891Z,15.57
2017-06-24T13:27:57.520Z,23.30
2017-06-24T13:30:25.464Z,7.60
2017-06-24T13:32:53.058Z,17.87
2017-06-24T13:35:20.633Z,15.17
2017-06-24T13:37:49.137Z,6.90
2017-06-24T13:40:16.754Z,23.00
2017-06-24T13:42:44.385Z,5.70
2017-06-24T13:45:12.655Z,5.10
2017-06-24T13:47:41.091Z,7.97
2017-06-24T13:50:08.652Z,5.07
2017-06-24T13:52:37.898Z,3.80
2017-06-24T13:55:07.526Z,7.03
2017-06-24T13:57:35.143Z,4.10
2017-06-24T14:00:03.106Z,7.20
2017-06-24T14:02:30.776Z,3.90
2017-06-24T14:04:58.376Z,4.50
2017-06-24T14:07:26.902Z,4.80
2017-06-24T14:09:55.276Z,9.53
2017-06-24T14:12:22.844Z,5.37
2017-06-24T14:14:50.602Z,10.23
2017-06-24T14:17:18.160Z,2.80
2017-06-24T14:19:49.304Z,2.50
2017-06-24T14:22:17.069Z,4.97
2017-06-24T14:24:44.628Z,4.40
2017-06-24T14:27:13.964Z,3.47
2017-06-24T14:29:41.857Z,5.33
2017-06-24T14:32:10.181Z,4.33
2017-06-24T14:34:37.839Z,2.00
2017-06-24T14:37:06.192Z,3.67
2017-06-24T14:39:34.599Z,3.30
2017-06-24T14:42:03.013Z,2.50
2017-06-24T14:44:30.849Z,2.10
2017-06-24T14:46:58.458Z,3.37
2017-06-24T14:49:26.070Z,2.83
2017-06-24T14:51:55.013Z,1.60
2017-06-24T14:54:24.361Z,2.60
2017-06-24T14:56:51.988Z,2.57
2017-06-24T14:59:19.862Z,1.83
2017-06-24T15:01:48.193Z,7.07
2017-06-24T15:04:15.778Z,2.97
2017-06-24T15:06:44.548Z,4.33
2017-06-24T15:09:13.075Z,2.20
2017-06-24T15:11:40.810Z,2.07
2017-06-24T15:14:12.177Z,5.63
2017-06-24T15:16:40.326Z,3.70
2017-06-24T15:19:08.001Z,4.67
2017-06-24T15:21:37.730Z,5.03
2017-06-24T15:24:05.589Z,6.93
2017-06-24T15:26:33.309Z,4.20
2017-06-24T15:29:01.663Z,4.80
2017-06-24T15:31:29.400Z,9.13
2017-06-24T15:33:57.025Z,3.93
2017-06-24T15:36:25.020Z,4.33
2017-06-24T15:38:52.582Z,2.67
2017-06-24T15:41:20.143Z,3.30
2017-06-24T15:43:47.831Z,6.00
2017-06-24T15:46:16.263Z,3.30
2017-06-24T15:48:43.816Z,10.83
2017-06-24T15:51:11.557Z,5.80
2017-06-24T15:53:39.259Z,15.57
2017-06-24T15:56:07.167Z,4.73
2017-06-24T15:58:34.961Z,8.13
2017-06-24T16:01:02.590Z,5.63
2017-06-24T16:03:30.462Z,4.30
2017-06-24T16:05:58.162Z,10.47
2017-06-24T16:08:25.736Z,4.50
2017-06-24T16:10:54.057Z,8.17
2017-06-24T16:13:21.824Z,8.10
2017-06-24T16:15:49.448Z,10.20
2017-06-24T16:18:17.048Z,25.13
2017-06-24T16:20:46.457Z,6.80
2017-06-24T16:23:16.029Z,8.23
2017-06-24T16:25:43.759Z,7.93
2017-06-24T16:28:12.578Z,6.30
2017-06-24T16:30:40.284Z,5.80
2017-06-24T16:33:07.999Z,12.20
2017-06-24T16:35:36.637Z,3.10
2017-06-24T16:38:04.319Z,3.33
2017-06-24T16:40:32.181Z,8.47
2017-06-24T16:43:00.741Z,19.90
2017-06-24T16:45:29.166Z,5.30
2017-06-24T16:47:56.783Z,8.73
2017-06-24T16:50:25.845Z,5.80
2017-06-24T16:52:53.419Z,12.40
2017-06-24T16:55:20.984Z,2.93
2017-06-24T16:57:51.346Z,8.60
2017-06-24T17:00:20.594Z,10.30
2017-06-24T17:02:50.209Z,6.17
2017-06-24T17:05:17.897Z,8.17
2017-06-24T17:07:45.534Z,6.50
2017-06-24T17:10:13.844Z,3.20
2017-06-24T17:12:41.677Z,5.20
2017-06-24T17:15:09.446Z,7.57
2017-06-24T17:17:37.054Z,8.37
2017-06-24T17:20:04.880Z,6.30
2017-06-24T17:22:33.313Z,9.30
2017-06-24T17:25:00.944Z,6.17
2017-06-24T17:27:28.694Z,4.93
2017-06-24T17:29:56.265Z,8.40
2017-06-24T17:32:23.846Z,7.93
2017-06-24T17:34:52.208Z,8.27
2017-06-24T17:37:19.795Z,8.13
2017-06-24T17:39:47.445Z,16.10
2017-06-24T17:42:15.374Z,6.83
2017-06-24T17:44:43.035Z,3.83
2017-06-24T17:47:10.800Z,3.63
2017-06-24T17:49:38.982Z,6.73
2017-06-24T17:52:06.839Z,8.20
2017-06-24T17:54:35.342Z,18.40
2017-06-24T17:57:04.230Z,12.03
2017-06-24T17:59:32.845Z,7.40
2017-06-24T18:02:01.116Z,6.37
2017-06-24T18:04:30.439Z,8.73
2017-06-24T18:06:58.033Z,6.43
2017-06-24T18:09:25.616Z,6.60
2017-06-24T18:11:54.132Z,4.43
2017-06-24T18:14:21.694Z,15.70
2017-06-24T18:16:49.256Z,11.90
2017-06-24T18:19:19.974Z,12.10
2017-06-24T18:21:48.320Z,13.17
2017-06-24T18:24:15.910Z,17.27
2017-06-24T18:26:44.488Z,3.67
2017-06-24T18:29:12.342Z,12.07
2017-06-24T18:31:40.148Z,15.37
2017-06-24T18:34:08.117Z,8.70
2017-06-24T18:36:36.002Z,5.77
2017-06-24T18:39:04.584Z,8.20
2017-06-24T18:41:33.409Z,19.30
2017-06-24T18:44:01.333Z,5.00
2017-06-24T18:46:30.539Z,21.53
2017-06-24T18:48:58.812Z,5.57
2017-06-24T18:51:26.446Z,8.57
2017-06-24T18:53:54.127Z,16.73
2017-06-24T18:56:22.155Z,17.40
2017-06-24T18:58:49.738Z,12.93
2017-06-24T19:01:18.173Z,8.83
2017-06-24T19:03:46.290Z,2.07
2017-06-24T19:06:13.934Z,12.93
2017-06-24T19:08:41.992Z,6.70
2017-06-24T19:11:10.297Z,7.27
2017-06-24T19:13:37.990Z,10.50
2017-06-24T19:16:06.671Z,9.50
2017-06-24T19:18:34.696Z,11.00
2017-06-24T19:21:02.447Z,8.53
2017-06-24T19:23:30.145Z,13.23
2017-06-24T19:25:57.988Z,8.63
2017-06-24T19:28:26.330Z,11.43
2017-06-24T19:30:53.880Z,6.47
2017-06-24T19:33:23.112Z,3.87
2017-06-24T19:35:50.728Z,8.30
2017-06-24T19:38:19.077Z,14.70
2017-06-24T19:40:47.183Z,7.23
2017-06-24T19:43:14.877Z,7.73
2017-06-24T19:45:43.352Z,10.07
2017-06-24T19:48:12.673Z,8.47
2017-06-24T19:50:40.443Z,8.13
2017-06-24T19:53:08.038Z,10.27
2017-06-24T19:55:37.409Z,5.90
2017-06-24T19:58:05.016Z,11.97
2017-06-24T20:00:32.924Z,6.20
2017-06-24T20:03:01.632Z,16.07
2017-06-24T20:05:29.522Z,5.50
2017-06-24T20:07:57.872Z,18.13
2017-06-24T20:10:25.885Z,4.73
2017-06-24T20:12:53.502Z,10.20
2017-06-24T20:15:21.167Z,6.73
2017-06-24T20:17:48.984Z,12.77
2017-06-24T20:20:16.697Z,18.03
2017-06-24T20:22:44.806Z,15.33
2017-06-24T20:25:13.976Z,4.77
2017-06-24T20:27:41.908Z,10.20
2017-06-24T20:30:09.669Z,6.40
2017-06-24T20:32:38.793Z,13.20
2017-06-24T20:35:06.543Z,8.17
2017-06-24T20:37:34.450Z,23.23
2017-06-24T20:40:03.393Z,9.33
2017-06-24T20:42:31.096Z,6.50
2017-06-24T20:44:58.739Z,7.80
2017-06-24T20:47:29.635Z,14.40
2017-06-24T20:49:57.232Z,23.77
2017-06-24T20:52:24.804Z,9.17
2017-06-24T20:54:53.387Z,17.23
2017-06-24T20:57:21.019Z,12.77
2017-06-24T20:59:48.602Z,16.17
2017-06-24T21:02:16.796Z,15.77
2017-06-24T21:04:44.545Z,22.17
2017-06-24T21:07:12.119Z,16.83
2017-06-24T21:09:39.995Z,7.40
2017-06-24T21:12:07.656Z,20.10
2017-06-24T21:14:35.391Z,18.67
2017-06-24T21:17:04.794Z,7.37
2017-06-24T21:19:33.415Z,9.40
2017-06-24T21:22:01.303Z,24.10
2017-06-24T21:24:30.029Z,8.77
2017-06-24T21:26:58.564Z,10.77
2017-06-24T21:29:27.184Z,21.17
2017-06-24T21:31:55.103Z,15.93
2017-06-24T21:34:23.457Z,12.33
2017-06-24T21:36:51.819Z,10.37
2017-06-24T21:39:20.888Z,7.07
2017-06-24T21:41:48.445Z,12.93
2017-06-24T21:44:17.104Z,21.33
2017-06-24T21:46:45.942Z,19.30
2017-06-24T21:49:13.526Z,9.23
2017-06-24T21:51:41.906Z,10.23
2017-06-24T21:54:10.781Z,12.67
2017-06-24T21:56:39.330Z,14.77
2017-06-24T21:59:07.704Z,9.53
2017-06-24T22:01:36.394Z,8.10
2017-06-24T22:04:04.014Z,4.30
2017-06-24T22:06:32.053Z,15.03
2017-06-24T22:09:00.710Z,15.97
2017-06-24T22:11:28.347Z,7.13
2017-06-24T22:13:56.000Z,8.23
2017-06-24T22:16:24.313Z,12.43
2017-06-24T22:18:52.659Z,15.10
2017-06-24T22:21:21.045Z,15.00
2017-06-24T22:23:49.104Z,19.57
2017-06-24T22:26:16.694Z,16.33
2017-06-24T22:28:44.254Z,4.90
2017-06-24T22:31:12.150Z,13.60
2017-06-24T22:33:39.808Z,8.00
2017-06-24T22:36:07.449Z,8.57
2017-06-24T22:38:35.513Z,18.53
2017-06-24T22:41:03.253Z,14.43
2017-06-24T22:43:30.892Z,11.93
2017-06-24T22:45:59.010Z,14.03
2017-06-24T22:48:26.619Z,11.27
2017-06-24T22:50:54.179Z,11.93
2017-06-24T22:53:22.100Z,10.63
2017-06-24T22:55:49.656Z,15.43
2017-06-24T22:58:18.139Z,13.90
2017-06-24T23:00:46.875Z,17.03
2017-06-24T23:03:14.513Z,15.30
2017-06-24T23:05:42.132Z,14.50
2017-06-24T23:08:10.868Z,12.73
2017-06-24T23:10:38.498Z,15.80
2017-06-24T23:13:06.110Z,11.50
2017-06-24T23:15:34.793Z,10.97
2017-06-24T23:18:02.764Z,6.27
2017-06-24T23:20:30.800Z,7.17
2017-06-24T23:22:58.492Z,8.60
2017-06-24T23:25:26.145Z,10.27
2017-06-24T23:27:53.708Z,14.90
2017-06-24T23:30:21.866Z,10.53
2017-06-24T23:32:49.453Z,9.17
2017-06-24T23:35:17.086Z,17.53
2017-06-24T23:37:46.574Z,14.83
2017-06-24T23:40:14.926Z,11.30
2017-06-24T23:42:42.507Z,15.60
2017-06-24T23:45:10.310Z,17.23
2017-06-24T23:47:37.955Z,9.40
2017-06-24T23:50:05.821Z,14.90
2017-06-24T23:52:34.629Z,13.67
2017-06-24T23:55:02.506Z,12.80
2017-06-24T23:57:30.173Z,12.60
2017-06-24T23:59:58.051Z,14.90
